createdAt,value
2019-03-29T00:01:06.602Z,0
2019-03-29T00:02:20.779Z,0
2019-03-29T00:03:34.992Z,0
2019-03-29T00:04:52.358Z,0
2019-03-29T00:06:04.207Z,0
2019-03-29T00:07:17.508Z,0
2019-03-29T00:08:31.698Z,0
2019-03-29T00:09:45.917Z,0
2019-03-29T00:11:00.169Z,0
2019-03-29T00:12:14.315Z,0
2019-03-29T00:13:28.429Z,0
2019-03-29T00:14:42.644Z,0
2019-03-29T00:15:56.885Z,0
2019-03-29T00:17:10.991Z,0
2019-03-29T00:18:25.184Z,0
2019-03-29T00:19:39.410Z,0
2019-03-29T00:20:53.563Z,0
2019-03-29T00:22:07.871Z,0
2019-03-29T00:23:21.975Z,0
2019-03-29T00:24:36.151Z,0
2019-03-29T00:25:53.829Z,0
2019-03-29T00:27:05.067Z,0
2019-03-29T00:28:18.828Z,0
2019-03-29T00:29:33.007Z,0
2019-03-29T00:30:47.304Z,0
2019-03-29T00:32:01.315Z,0
2019-03-29T00:33:16.233Z,0
2019-03-29T00:34:29.774Z,0
2019-03-29T00:35:43.987Z,0
2019-03-29T00:36:58.084Z,0
2019-03-29T00:38:12.361Z,0
2019-03-29T00:39:26.609Z,0
2019-03-29T00:40:40.749Z,0
2019-03-29T00:41:54.919Z,0
2019-03-29T00:43:10.515Z,0
2019-03-29T00:44:23.247Z,0
2019-03-29T00:45:37.514Z,0
2019-03-29T00:46:51.641Z,0
2019-03-29T00:48:05.823Z,0
2019-03-29T00:49:20.106Z,0
2019-03-29T00:50:34.275Z,0
2019-03-29T00:51:48.484Z,0
2019-03-29T00:53:02.588Z,0
2019-03-29T00:54:16.794Z,0
2019-03-29T00:55:30.971Z,0
2019-03-29T00:56:45.179Z,0
2019-03-29T00:57:59.376Z,0
2019-03-29T00:59:13.574Z,0
2019-03-29T01:00:27.821Z,0
2019-03-29T01:01:41.945Z,0
2019-03-29T01:02:56.215Z,0
2019-03-29T01:04:10.371Z,0
2019-03-29T01:05:24.627Z,0
2019-03-29T01:06:38.895Z,0
2019-03-29T01:07:52.916Z,0
2019-03-29T01:09:07.119Z,0
2019-03-29T01:10:21.327Z,0
2019-03-29T01:11:35.498Z,0
2019-03-29T01:12:49.707Z,0
2019-03-29T01:14:04.003Z,0
2019-03-29T01:15:18.159Z,0
2019-03-29T01:16:32.380Z,0
2019-03-29T01:17:47.260Z,0
2019-03-29T01:19:00.806Z,0
2019-03-29T01:20:14.983Z,0
2019-03-29T01:21:29.185Z,0
2019-03-29T01:22:43.447Z,0
2019-03-29T01:23:57.550Z,0
2019-03-29T01:25:11.863Z,0
2019-03-29T01:26:26.135Z,0
2019-03-29T01:27:40.197Z,0
2019-03-29T01:28:54.417Z,0
2019-03-29T01:30:08.615Z,0
2019-03-29T01:31:22.805Z,0
2019-03-29T01:32:37.005Z,0
2019-03-29T01:33:51.295Z,0
2019-03-29T01:35:08.735Z,0
2019-03-29T01:36:19.610Z,0
2019-03-29T01:37:33.815Z,0
2019-03-29T01:38:48.067Z,0
2019-03-29T01:40:02.207Z,0
2019-03-29T01:41:16.411Z,0
2019-03-29T01:42:30.680Z,0
2019-03-29T01:43:44.942Z,0
2019-03-29T01:44:58.998Z,0
2019-03-29T01:46:13.181Z,0
2019-03-29T01:47:27.432Z,0
2019-03-29T01:48:41.585Z,0
2019-03-29T01:49:55.817Z,0
2019-03-29T01:51:10.014Z,0
2019-03-29T01:52:24.209Z,0
2019-03-29T01:53:38.411Z,0
2019-03-29T01:54:52.686Z,0
2019-03-29T01:56:06.898Z,0
2019-03-29T01:57:20.992Z,0
2019-03-29T01:58:35.341Z,0
2019-03-29T01:59:49.400Z,0
2019-03-29T02:01:03.594Z,0
2019-03-29T02:02:17.883Z,0
2019-03-29T02:03:32.013Z,0
2019-03-29T02:04:46.183Z,0
2019-03-29T02:06:00.395Z,0
2019-03-29T02:07:14.610Z,0
2019-03-29T02:08:28.948Z,0
2019-03-29T02:09:43.068Z,0
2019-03-29T02:10:57.195Z,0
2019-03-29T02:12:11.445Z,0
2019-03-29T02:13:25.579Z,0
2019-03-29T02:14:40.002Z,0
2019-03-29T02:15:53.986Z,0
2019-03-29T02:17:08.203Z,0
2019-03-29T02:18:22.442Z,0
2019-03-29T02:19:36.609Z,0
2019-03-29T02:20:50.787Z,0
2019-03-29T02:22:05.098Z,0
2019-03-29T02:23:19.328Z,0
2019-03-29T02:24:33.503Z,0
2019-03-29T02:25:47.613Z,0
2019-03-29T02:27:01.870Z,0
2019-03-29T02:28:16.080Z,0
2019-03-29T02:29:30.222Z,0
2019-03-29T02:30:44.528Z,0
2019-03-29T02:31:59.468Z,0
2019-03-29T02:33:12.833Z,0
2019-03-29T02:34:27.034Z,0
2019-03-29T02:35:41.263Z,0
2019-03-29T02:36:55.659Z,0
2019-03-29T02:38:09.758Z,0
2019-03-29T02:39:23.891Z,0
2019-03-29T02:40:38.091Z,0
2019-03-29T02:41:52.384Z,0
2019-03-29T02:43:06.507Z,0
2019-03-29T02:44:20.716Z,0
2019-03-29T02:45:34.892Z,0
2019-03-29T02:46:49.172Z,0
2019-03-29T02:48:03.309Z,0
2019-03-29T02:49:17.729Z,0
2019-03-29T02:50:31.736Z,0
2019-03-29T02:51:45.926Z,0
2019-03-29T02:53:00.209Z,0
2019-03-29T02:54:14.338Z,0
2019-03-29T02:56:42.823Z,0
2019-03-29T02:57:56.952Z,0
2019-03-29T02:59:11.232Z,0
2019-03-29T03:00:25.361Z,0
2019-03-29T03:01:39.595Z,0
2019-03-29T03:02:53.885Z,0
2019-03-29T03:04:08.018Z,0
2019-03-29T03:05:22.306Z,0
2019-03-29T03:06:36.505Z,0
2019-03-29T03:07:50.648Z,0
2019-03-29T03:09:05.163Z,0
2019-03-29T03:10:19.140Z,0
2019-03-29T03:11:33.266Z,0
2019-03-29T03:12:47.455Z,0
2019-03-29T03:14:01.708Z,0
2019-03-29T03:15:15.971Z,0
2019-03-29T03:16:30.133Z,0
2019-03-29T03:17:44.279Z,0
2019-03-29T03:18:58.497Z,0
2019-03-29T03:20:12.766Z,0
2019-03-29T03:21:26.930Z,0
2019-03-29T03:22:41.145Z,0
2019-03-29T03:23:55.497Z,0
2019-03-29T03:25:09.561Z,0
2019-03-29T03:26:27.652Z,0
2019-03-29T03:27:37.950Z,0
2019-03-29T03:28:52.263Z,0
2019-03-29T03:30:06.409Z,0
2019-03-29T03:31:20.690Z,0
2019-03-29T03:32:34.858Z,0
2019-03-29T03:33:49.018Z,0
2019-03-29T03:35:03.315Z,0
2019-03-29T03:36:17.419Z,0
2019-03-29T03:37:31.645Z,0
2019-03-29T03:38:45.849Z,0
2019-03-29T03:40:00.065Z,0
2019-03-29T03:41:14.285Z,0
2019-03-29T03:42:28.485Z,0
2019-03-29T03:43:42.720Z,0
2019-03-29T03:44:56.991Z,0
2019-03-29T03:46:13.578Z,0
2019-03-29T03:47:25.541Z,0
2019-03-29T03:48:39.623Z,0
2019-03-29T03:49:53.790Z,0
2019-03-29T03:51:08.129Z,0
2019-03-29T03:52:22.193Z,0
2019-03-29T03:53:36.602Z,0
2019-03-29T03:54:50.664Z,0
2019-03-29T03:56:04.836Z,0
2019-03-29T03:57:19.034Z,0
2019-03-29T03:58:33.312Z,0
2019-03-29T03:59:47.559Z,0
2019-03-29T04:01:01.889Z,0
2019-03-29T04:02:15.879Z,0
2019-03-29T04:03:30.095Z,0
2019-03-29T04:04:44.314Z,0
2019-03-29T04:05:58.718Z,0
2019-03-29T04:07:12.742Z,0
2019-03-29T04:08:26.933Z,0
2019-03-29T04:09:41.336Z,0
2019-03-29T04:10:55.370Z,0
2019-03-29T04:12:09.641Z,0
2019-03-29T04:13:23.844Z,0
2019-03-29T04:14:37.973Z,0
2019-03-29T04:15:52.186Z,0
2019-03-29T04:17:06.423Z,0
2019-03-29T04:18:20.617Z,0
2019-03-29T04:19:34.825Z,0
2019-03-29T04:20:49.391Z,0
2019-03-29T04:22:03.274Z,0
2019-03-29T04:23:17.517Z,0
2019-03-29T04:24:31.646Z,0
2019-03-29T04:25:45.940Z,0
2019-03-29T04:27:00.128Z,0
2019-03-29T04:28:14.294Z,0
2019-03-29T04:29:28.496Z,0
2019-03-29T04:30:42.774Z,0
2019-03-29T04:31:56.907Z,0
2019-03-29T04:33:11.211Z,0
2019-03-29T04:34:27.408Z,0
2019-03-29T04:35:39.529Z,0
2019-03-29T04:36:53.806Z,0
2019-03-29T04:38:07.956Z,0
2019-03-29T04:39:22.141Z,4
2019-03-29T04:40:36.525Z,4
2019-03-29T04:41:50.586Z,4
2019-03-29T04:43:04.918Z,4
2019-03-29T04:44:19.139Z,4
2019-03-29T04:45:33.293Z,4
2019-03-29T04:46:47.517Z,8
2019-03-29T04:48:01.653Z,8
2019-03-29T04:49:15.877Z,12
2019-03-29T04:50:30.148Z,12
2019-03-29T04:51:44.654Z,20
2019-03-29T04:52:58.573Z,20
2019-03-29T04:54:12.732Z,32
2019-03-29T04:55:26.982Z,36
2019-03-29T04:56:41.132Z,44
2019-03-29T04:57:55.345Z,56
2019-03-29T04:59:09.602Z,68
2019-03-29T05:00:24.004Z,84
2019-03-29T05:01:37.999Z,100
2019-03-29T05:02:52.264Z,116
2019-03-29T05:04:06.470Z,140
2019-03-29T05:05:20.661Z,168
2019-03-29T05:06:34.895Z,192
2019-03-29T05:07:49.102Z,228
2019-03-29T05:09:03.307Z,260
2019-03-29T05:10:17.545Z,296
2019-03-29T05:11:31.821Z,336
2019-03-29T05:12:45.977Z,380
2019-03-29T05:14:00.278Z,428
2019-03-29T05:15:14.414Z,476
2019-03-29T05:16:28.673Z,532
2019-03-29T05:17:42.857Z,588
2019-03-29T05:18:57.082Z,648
2019-03-29T05:20:11.372Z,708
2019-03-29T05:21:25.531Z,772
2019-03-29T05:22:39.764Z,840
2019-03-29T05:23:53.997Z,912
2019-03-29T05:25:08.202Z,984
2019-03-29T05:26:22.427Z,1060
2019-03-29T05:27:36.719Z,1132
2019-03-29T05:28:50.878Z,1208
2019-03-29T05:30:05.084Z,1284
2019-03-29T05:31:19.451Z,1364
2019-03-29T05:32:33.537Z,1444
2019-03-29T05:33:47.736Z,1528
2019-03-29T05:35:01.965Z,1604
2019-03-29T05:36:16.191Z,1688
2019-03-29T05:37:30.490Z,1768
2019-03-29T05:38:44.632Z,1844
2019-03-29T05:39:58.848Z,1924
2019-03-29T05:41:13.079Z,2000
2019-03-29T05:42:32.884Z,2084
2019-03-29T05:43:41.924Z,2160
2019-03-29T05:44:55.886Z,2236
2019-03-29T05:46:09.948Z,2316
2019-03-29T05:47:24.200Z,2396
2019-03-29T05:48:38.388Z,2476
2019-03-29T05:49:52.623Z,2564
2019-03-29T05:51:06.835Z,2656
2019-03-29T05:52:21.116Z,2708
2019-03-29T05:53:35.383Z,2784
2019-03-29T05:54:49.487Z,2904
2019-03-29T05:56:03.955Z,3160
2019-03-29T05:57:17.915Z,3432
2019-03-29T05:58:32.157Z,3652
2019-03-29T05:59:46.441Z,3768
2019-03-29T06:01:00.584Z,3864
2019-03-29T06:02:14.758Z,3972
2019-03-29T06:03:28.953Z,4068
2019-03-29T06:04:43.167Z,4160
2019-03-29T06:05:57.377Z,4252
2019-03-29T06:07:11.653Z,4344
2019-03-29T06:08:25.863Z,4452
2019-03-29T06:09:40.003Z,4556
2019-03-29T06:10:54.209Z,4660
2019-03-29T06:12:08.361Z,4752
2019-03-29T06:13:22.560Z,4852
2019-03-29T06:14:36.742Z,4956
2019-03-29T06:15:50.960Z,5060
2019-03-29T06:17:05.195Z,5188
2019-03-29T06:18:19.288Z,5272
2019-03-29T06:19:33.481Z,5388
2019-03-29T06:20:47.768Z,5472
2019-03-29T06:22:01.851Z,5592
2019-03-29T06:23:16.108Z,5680
2019-03-29T06:24:30.196Z,5788
2019-03-29T06:25:44.378Z,5884
2019-03-29T06:26:58.546Z,5964
2019-03-29T06:28:13.194Z,6072
2019-03-29T06:29:26.969Z,6160
2019-03-29T06:30:41.136Z,6276
2019-03-29T06:31:55.277Z,6348
2019-03-29T06:33:09.399Z,6440
2019-03-29T06:34:23.556Z,6524
2019-03-29T06:35:37.745Z,6596
2019-03-29T06:36:51.896Z,6616
2019-03-29T06:38:06.054Z,6736
2019-03-29T06:39:20.306Z,6800
2019-03-29T06:40:34.626Z,6864
2019-03-29T06:41:48.550Z,6964
2019-03-29T06:43:02.701Z,7048
2019-03-29T06:44:17.003Z,7116
2019-03-29T06:45:31.101Z,7248
2019-03-29T06:46:45.250Z,7376
2019-03-29T06:47:59.343Z,7368
2019-03-29T06:49:13.500Z,7400
2019-03-29T06:50:27.786Z,7524
2019-03-29T06:51:41.799Z,7660
2019-03-29T06:52:55.975Z,7716
2019-03-29T06:54:12.372Z,7848
2019-03-29T06:55:24.327Z,8016
2019-03-29T06:56:38.418Z,8108
2019-03-29T06:57:52.575Z,8068
2019-03-29T06:59:06.740Z,8048
2019-03-29T07:00:20.897Z,8184
2019-03-29T07:01:35.082Z,8288
2019-03-29T07:02:49.209Z,8288
2019-03-29T07:04:03.344Z,8340
2019-03-29T07:05:17.518Z,8456
2019-03-29T07:06:31.637Z,8512
2019-03-29T07:07:45.838Z,8624
2019-03-29T07:08:59.938Z,8784
2019-03-29T07:10:14.062Z,8908
2019-03-29T07:11:28.188Z,9032
2019-03-29T07:12:42.341Z,9132
2019-03-29T07:13:56.498Z,9260
2019-03-29T07:15:10.643Z,10164
2019-03-29T07:16:24.849Z,10940
2019-03-29T07:17:38.881Z,10944
2019-03-29T07:18:53.021Z,10664
2019-03-29T07:20:07.501Z,10684
2019-03-29T07:21:21.536Z,10112
2019-03-29T07:22:35.424Z,10056
2019-03-29T07:23:49.698Z,10072
2019-03-29T07:25:03.755Z,10508
2019-03-29T07:26:17.850Z,9928
2019-03-29T07:27:32.086Z,9900
2019-03-29T07:28:46.242Z,9956
2019-03-29T07:30:00.311Z,10052
2019-03-29T07:31:14.406Z,10068
2019-03-29T07:32:28.517Z,10240
2019-03-29T07:33:42.634Z,10620
2019-03-29T07:34:56.790Z,10928
2019-03-29T07:36:10.899Z,11200
2019-03-29T07:37:25.041Z,10940
2019-03-29T07:38:39.173Z,10844
2019-03-29T07:39:53.442Z,11112
2019-03-29T07:41:07.420Z,11252
2019-03-29T07:42:21.561Z,12996
2019-03-29T07:43:35.667Z,13488
2019-03-29T07:44:49.835Z,14556
2019-03-29T07:46:04.067Z,15284
2019-03-29T07:47:18.058Z,15292
2019-03-29T07:48:32.163Z,15452
2019-03-29T07:49:46.359Z,15324
2019-03-29T07:51:00.682Z,15972
2019-03-29T07:52:14.550Z,15116
2019-03-29T07:53:33.172Z,16276
2019-03-29T07:54:42.761Z,17120
2019-03-29T07:55:56.902Z,17632
2019-03-29T07:57:10.987Z,17472
2019-03-29T07:58:25.187Z,17792
2019-03-29T07:59:43.029Z,17856
2019-03-29T08:00:53.357Z,18528
2019-03-29T08:02:07.496Z,17632
2019-03-29T08:03:25.430Z,18464
2019-03-29T08:04:35.852Z,19040
2019-03-29T08:05:49.823Z,19936
2019-03-29T08:07:06.867Z,21472
2019-03-29T08:08:18.208Z,22304
2019-03-29T08:09:32.251Z,21536
2019-03-29T08:10:46.234Z,22272
2019-03-29T08:12:00.391Z,22912
2019-03-29T08:13:14.436Z,21664
2019-03-29T08:14:28.523Z,20800
2019-03-29T08:15:42.642Z,23136
2019-03-29T08:16:56.730Z,24832
2019-03-29T08:18:10.882Z,24672
2019-03-29T08:19:24.956Z,23552
2019-03-29T08:20:39.069Z,22240
2019-03-29T08:21:53.165Z,24256
2019-03-29T08:23:07.325Z,26624
2019-03-29T08:24:21.388Z,27040
2019-03-29T08:25:35.465Z,28416
2019-03-29T08:26:49.607Z,28032
2019-03-29T08:28:03.683Z,26400
2019-03-29T08:29:17.848Z,27072
2019-03-29T08:30:31.944Z,29760
2019-03-29T08:31:46.045Z,31264
2019-03-29T08:33:00.112Z,30624
2019-03-29T08:34:14.197Z,31776
2019-03-29T08:35:28.282Z,32224
2019-03-29T08:37:56.554Z,32736
2019-03-29T08:39:10.667Z,33056
2019-03-29T08:40:24.665Z,35008
2019-03-29T08:41:38.856Z,36224
2019-03-29T08:42:52.844Z,35808
2019-03-29T08:44:06.969Z,34944
2019-03-29T08:45:21.156Z,35392
2019-03-29T08:46:35.216Z,31168
2019-03-29T08:47:49.267Z,26720
2019-03-29T08:49:03.291Z,25664
2019-03-29T08:50:17.368Z,24480
2019-03-29T08:51:31.448Z,25824
2019-03-29T08:52:45.622Z,29184
2019-03-29T08:53:59.607Z,34080
2019-03-29T08:55:13.719Z,37344
2019-03-29T08:56:27.767Z,38688
2019-03-29T08:57:42.054Z,39680
2019-03-29T08:58:55.982Z,40288
2019-03-29T09:00:09.995Z,41184
2019-03-29T09:01:24.220Z,42304
2019-03-29T09:02:38.508Z,41760
2019-03-29T09:03:52.270Z,39616
2019-03-29T09:05:06.416Z,39200
2019-03-29T09:06:20.405Z,40704
2019-03-29T09:07:38.448Z,41696
2019-03-29T09:08:48.708Z,41984
2019-03-29T09:12:30.883Z,44192
2019-03-29T09:13:45.327Z,45184
2019-03-29T09:14:58.911Z,45504
2019-03-29T09:16:13.071Z,45376
2019-03-29T09:17:27.064Z,46592
2019-03-29T09:18:41.509Z,47392
2019-03-29T09:19:55.206Z,46688
2019-03-29T09:21:09.270Z,46592
2019-03-29T09:22:23.489Z,45440
2019-03-29T09:23:37.546Z,41792
2019-03-29T09:24:51.724Z,42848
2019-03-29T09:26:05.580Z,46080
2019-03-29T09:27:19.665Z,49472
2019-03-29T09:28:33.746Z,49888
2019-03-29T09:29:47.883Z,50080
2019-03-29T09:31:01.967Z,49728
2019-03-29T09:32:15.932Z,49696
2019-03-29T09:33:29.995Z,50656
2019-03-29T09:34:44.144Z,50464
2019-03-29T09:35:58.222Z,50880
2019-03-29T09:37:12.191Z,51072
2019-03-29T09:38:26.331Z,51712
2019-03-29T09:39:40.390Z,53408
2019-03-29T09:40:54.404Z,54848
2019-03-29T09:42:08.460Z,52992
2019-03-29T09:43:22.519Z,52896
2019-03-29T09:44:36.612Z,52768
2019-03-29T09:45:50.720Z,52352
2019-03-29T09:47:04.708Z,54720
2019-03-29T09:48:18.863Z,56640
2019-03-29T09:49:32.839Z,59008
2019-03-29T09:50:47.012Z,58464
2019-03-29T09:52:00.937Z,56512
2019-03-29T09:53:14.986Z,52224
2019-03-29T09:54:29.046Z,53536
2019-03-29T09:55:43.195Z,53024
2019-03-29T09:56:57.229Z,56000
2019-03-29T09:58:11.259Z,55840
2019-03-29T09:59:25.338Z,56800
2019-03-29T10:00:39.440Z,57152
2019-03-29T10:01:53.436Z,58784
2019-03-29T10:03:07.497Z,59072
2019-03-29T10:04:21.557Z,58400
2019-03-29T10:05:35.675Z,61184
2019-03-29T10:06:49.694Z,62080
2019-03-29T10:08:03.764Z,61824
2019-03-29T10:09:17.773Z,62592
2019-03-29T10:10:31.839Z,62944
2019-03-29T10:11:45.913Z,64448
2019-03-29T10:12:59.955Z,63872
2019-03-29T10:14:14.092Z,62080
2019-03-29T10:15:28.106Z,64128
2019-03-29T10:16:42.173Z,64864
2019-03-29T10:17:56.224Z,65984
2019-03-29T10:19:10.313Z,66112
2019-03-29T10:20:24.353Z,63392
2019-03-29T10:21:38.613Z,64160
2019-03-29T10:22:52.594Z,63808
2019-03-29T10:24:06.586Z,64352
2019-03-29T10:25:20.615Z,65728
2019-03-29T10:26:34.679Z,67648
2019-03-29T10:27:48.740Z,69056
2019-03-29T10:29:02.792Z,68896
2019-03-29T10:30:16.821Z,69696
2019-03-29T10:31:30.903Z,73504
2019-03-29T10:32:44.937Z,74880
2019-03-29T10:33:59.258Z,75040
2019-03-29T10:35:13.133Z,75936
2019-03-29T10:36:27.206Z,78240
2019-03-29T10:37:41.190Z,76320
2019-03-29T10:38:55.243Z,75360
2019-03-29T10:40:09.281Z,74144
2019-03-29T10:41:23.358Z,74944
2019-03-29T10:42:37.396Z,77856
2019-03-29T10:43:51.500Z,74944
2019-03-29T10:45:05.520Z,74912
2019-03-29T10:46:19.579Z,74368
2019-03-29T10:47:33.705Z,75584
2019-03-29T10:48:47.679Z,76032
2019-03-29T10:50:01.743Z,73728
2019-03-29T10:51:15.782Z,72384
2019-03-29T10:52:29.850Z,72288
2019-03-29T10:53:43.884Z,74720
2019-03-29T10:54:57.957Z,77024
2019-03-29T10:56:12.117Z,77408
2019-03-29T10:57:26.101Z,77344
2019-03-29T10:58:40.147Z,79520
2019-03-29T10:59:54.193Z,80160
2019-03-29T11:01:08.246Z,80704
2019-03-29T11:02:22.324Z,79296
2019-03-29T11:03:36.393Z,83904
2019-03-29T11:04:50.435Z,81568
2019-03-29T11:06:04.494Z,81568
2019-03-29T11:07:18.618Z,83872
2019-03-29T11:08:32.570Z,82368
2019-03-29T11:09:48.322Z,83360
2019-03-29T11:11:00.853Z,79616
2019-03-29T11:12:14.823Z,79872
2019-03-29T11:13:28.835Z,78144
2019-03-29T11:14:42.872Z,79808
2019-03-29T11:15:56.962Z,77728
2019-03-29T11:17:10.971Z,74176
2019-03-29T11:18:24.993Z,77120
2019-03-29T11:19:39.035Z,76064
2019-03-29T11:20:53.124Z,79296
2019-03-29T11:22:10.386Z,82208
2019-03-29T11:23:22.339Z,78528
2019-03-29T11:24:35.404Z,80448
2019-03-29T11:25:49.300Z,78336
2019-03-29T11:27:03.407Z,77312
2019-03-29T11:28:17.370Z,79744
2019-03-29T11:29:31.423Z,81344
2019-03-29T11:30:45.483Z,80736
2019-03-29T11:31:59.550Z,84608
2019-03-29T11:33:13.571Z,84160
2019-03-29T11:34:27.819Z,86400
2019-03-29T11:35:41.654Z,86304
2019-03-29T11:36:55.714Z,85440
2019-03-29T11:38:09.766Z,88640
2019-03-29T11:39:23.821Z,87456
2019-03-29T11:40:37.874Z,87904
2019-03-29T11:41:51.920Z,85792
2019-03-29T11:43:06.069Z,84448
2019-03-29T11:44:20.070Z,86720
2019-03-29T11:45:34.085Z,84448
2019-03-29T11:46:51.498Z,81568
2019-03-29T11:48:02.179Z,83104
2019-03-29T11:49:16.307Z,79040
2019-03-29T11:50:30.290Z,83584
2019-03-29T11:51:44.360Z,78944
2019-03-29T11:52:58.390Z,81920
2019-03-29T11:54:12.439Z,81536
2019-03-29T11:55:26.553Z,84832
2019-03-29T11:56:40.581Z,87072
2019-03-29T11:57:54.597Z,89760
2019-03-29T11:59:08.709Z,91200
2019-03-29T12:00:22.701Z,90720
2019-03-29T12:01:36.755Z,87232
2019-03-29T12:02:50.906Z,85984
2019-03-29T12:04:04.929Z,86560
2019-03-29T12:05:18.919Z,85408
2019-03-29T12:06:33.074Z,85664
2019-03-29T12:07:47.109Z,84736
2019-03-29T12:09:01.566Z,83104
2019-03-29T12:10:15.155Z,86848
2019-03-29T12:11:29.266Z,85568
2019-03-29T12:12:43.266Z,87712
2019-03-29T12:13:57.322Z,86336
2019-03-29T12:15:11.457Z,84832
2019-03-29T12:16:25.437Z,86016
2019-03-29T12:17:39.540Z,87488
2019-03-29T12:18:53.659Z,91360
2019-03-29T12:20:07.576Z,89824
2019-03-29T12:21:21.800Z,89088
2019-03-29T12:22:35.762Z,89760
2019-03-29T12:23:49.761Z,91168
2019-03-29T12:25:03.786Z,91200
2019-03-29T12:26:17.856Z,94912
2019-03-29T12:27:33.078Z,93824
2019-03-29T12:28:48.314Z,90752
2019-03-29T12:30:01.631Z,91360
2019-03-29T12:31:14.018Z,91104
2019-03-29T12:32:28.215Z,93472
2019-03-29T12:33:42.149Z,93440
2019-03-29T12:34:56.178Z,94048
2019-03-29T12:36:10.227Z,96768
2019-03-29T12:37:24.272Z,94880
2019-03-29T12:38:38.422Z,96832
2019-03-29T12:39:52.412Z,93216
2019-03-29T12:41:06.464Z,91648
2019-03-29T12:42:20.588Z,85536
2019-03-29T12:43:34.656Z,85568
2019-03-29T12:44:48.636Z,88000
2019-03-29T12:46:02.778Z,91648
2019-03-29T12:47:16.786Z,94496
2019-03-29T12:48:30.826Z,95744
2019-03-29T12:49:44.882Z,95488
2019-03-29T12:50:58.967Z,95072
2019-03-29T12:52:13.047Z,91840
2019-03-29T12:53:27.227Z,92160
2019-03-29T12:54:41.122Z,90176
2019-03-29T12:55:55.192Z,90048
2019-03-29T12:57:09.262Z,91392
2019-03-29T12:58:23.320Z,92000
2019-03-29T12:59:37.473Z,96320
2019-03-29T13:00:51.595Z,96032
2019-03-29T13:02:05.658Z,95104
2019-03-29T13:03:19.672Z,92256
2019-03-29T13:04:33.631Z,93184
2019-03-29T13:05:47.701Z,93120
2019-03-29T13:07:05.944Z,90240
2019-03-29T13:08:15.819Z,90336
2019-03-29T13:09:29.927Z,89248
2019-03-29T13:10:43.936Z,89920
2019-03-29T13:11:58.001Z,89376
2019-03-29T13:13:12.066Z,89312
2019-03-29T13:14:26.157Z,90720
2019-03-29T13:15:40.202Z,88832
2019-03-29T13:16:54.252Z,88448
2019-03-29T13:18:08.301Z,88256
2019-03-29T13:19:22.367Z,87520
2019-03-29T13:20:36.619Z,86336
2019-03-29T13:21:50.545Z,86208
2019-03-29T13:23:04.559Z,87904
2019-03-29T13:24:18.957Z,89120
2019-03-29T13:25:32.695Z,87584
2019-03-29T13:26:46.778Z,88832
2019-03-29T13:28:00.922Z,89216
2019-03-29T13:29:14.994Z,89280
2019-03-29T13:30:28.958Z,90144
2019-03-29T13:31:43.278Z,92960
2019-03-29T13:32:57.093Z,93248
2019-03-29T13:34:11.154Z,93216
2019-03-29T13:35:25.241Z,90656
2019-03-29T13:36:39.379Z,86336
2019-03-29T13:37:53.386Z,86624
2019-03-29T13:39:07.510Z,87616
2019-03-29T13:40:21.528Z,89088
2019-03-29T13:41:35.602Z,90336
2019-03-29T13:42:49.854Z,91520
2019-03-29T13:44:03.799Z,89056
2019-03-29T13:45:17.773Z,90304
2019-03-29T13:46:31.941Z,88992
2019-03-29T13:47:45.965Z,87456
2019-03-29T13:48:59.984Z,87488
2019-03-29T13:50:14.185Z,87776
2019-03-29T13:51:28.140Z,86624
2019-03-29T13:52:42.266Z,86496
2019-03-29T13:53:56.301Z,85664
2019-03-29T13:55:10.430Z,87328
2019-03-29T13:56:24.420Z,86112
2019-03-29T13:57:38.499Z,84832
2019-03-29T13:58:52.540Z,85344
2019-03-29T14:00:06.619Z,85568
2019-03-29T14:01:20.739Z,84672
2019-03-29T14:02:34.795Z,84608
2019-03-29T14:03:48.887Z,83264
2019-03-29T14:05:02.990Z,82272
2019-03-29T14:06:18.097Z,82560
2019-03-29T14:07:31.063Z,81344
2019-03-29T14:08:45.087Z,80096
2019-03-29T14:09:59.199Z,78976
2019-03-29T14:11:13.321Z,78976
2019-03-29T14:12:27.280Z,81856
2019-03-29T14:13:41.385Z,82208
2019-03-29T14:14:55.569Z,82560
2019-03-29T14:16:09.543Z,79616
2019-03-29T14:17:23.609Z,78848
2019-03-29T14:18:37.752Z,78336
2019-03-29T14:19:51.980Z,77664
2019-03-29T14:21:06.046Z,76320
2019-03-29T14:22:19.930Z,76000
2019-03-29T14:23:33.986Z,81152
2019-03-29T14:24:48.159Z,78656
2019-03-29T14:26:02.282Z,74880
2019-03-29T14:27:16.178Z,72928
2019-03-29T14:28:30.476Z,65888
2019-03-29T14:29:44.413Z,62880
2019-03-29T14:30:58.414Z,65056
2019-03-29T14:32:12.492Z,70368
2019-03-29T14:33:26.657Z,72960
2019-03-29T14:34:40.682Z,72928
2019-03-29T14:35:54.947Z,74304
2019-03-29T14:37:08.792Z,74752
2019-03-29T14:38:22.925Z,74976
2019-03-29T14:39:36.907Z,73344
2019-03-29T14:40:51.058Z,71680
2019-03-29T14:42:05.086Z,71136
2019-03-29T14:43:19.143Z,67200
2019-03-29T14:44:33.203Z,66944
2019-03-29T14:45:47.272Z,65632
2019-03-29T14:47:01.424Z,64704
2019-03-29T14:48:18.906Z,66720
2019-03-29T14:49:29.476Z,64544
2019-03-29T14:50:43.571Z,60288
2019-03-29T14:52:01.314Z,54656
2019-03-29T14:53:11.716Z,53184
2019-03-29T14:54:25.767Z,53344
2019-03-29T14:55:39.864Z,54368
2019-03-29T14:56:53.918Z,59776
2019-03-29T14:58:08.015Z,63264
2019-03-29T14:59:22.121Z,64832
2019-03-29T15:00:36.244Z,62592
2019-03-29T15:01:50.304Z,60384
2019-03-29T15:03:04.363Z,62976
2019-03-29T15:04:18.417Z,66720
2019-03-29T15:05:32.466Z,65472
2019-03-29T15:06:46.553Z,65664
2019-03-29T15:08:00.637Z,64928
2019-03-29T15:09:14.814Z,63712
2019-03-29T15:10:28.883Z,61248
2019-03-29T15:11:42.923Z,53312
2019-03-29T15:12:56.982Z,52864
2019-03-29T15:14:11.089Z,60768
2019-03-29T15:15:25.230Z,66656
2019-03-29T15:16:39.350Z,66752
2019-03-29T15:17:53.356Z,64128
2019-03-29T15:19:07.468Z,63680
2019-03-29T15:20:21.626Z,63328
2019-03-29T15:21:35.579Z,60928
2019-03-29T15:22:49.852Z,61312
2019-03-29T15:24:04.593Z,61696
2019-03-29T15:25:17.837Z,60832
2019-03-29T15:26:32.016Z,58688
2019-03-29T15:27:46.042Z,59296
2019-03-29T15:29:00.195Z,60128
2019-03-29T15:30:14.276Z,60544
2019-03-29T15:31:28.366Z,60288
2019-03-29T15:33:56.537Z,58464
2019-03-29T15:35:10.744Z,56992
2019-03-29T15:36:24.744Z,56128
2019-03-29T15:37:38.900Z,57760
2019-03-29T15:38:53.099Z,54144
2019-03-29T15:40:07.049Z,50464
2019-03-29T15:41:21.164Z,48352
2019-03-29T15:42:35.344Z,49472
2019-03-29T15:43:49.494Z,48608
2019-03-29T15:45:03.749Z,46976
2019-03-29T15:46:17.533Z,40384
2019-03-29T15:47:31.626Z,25248
2019-03-29T15:48:45.957Z,19040
2019-03-29T15:49:59.952Z,17984
2019-03-29T15:51:14.018Z,17376
2019-03-29T15:52:28.012Z,16896
2019-03-29T15:53:42.139Z,16768
2019-03-29T15:54:56.262Z,16764
2019-03-29T15:56:10.350Z,16780
2019-03-29T15:57:24.452Z,16692
2019-03-29T15:58:38.619Z,16592
2019-03-29T15:59:52.792Z,16896
2019-03-29T16:01:06.997Z,17472
2019-03-29T16:02:20.851Z,18016
2019-03-29T16:03:35.152Z,17824
2019-03-29T16:04:49.081Z,17356
2019-03-29T16:06:03.191Z,27680
2019-03-29T16:07:17.279Z,43552
2019-03-29T16:08:31.382Z,36672
2019-03-29T16:09:45.533Z,29216
2019-03-29T16:10:59.625Z,23680
2019-03-29T16:12:13.705Z,23040
2019-03-29T16:13:27.833Z,26080
2019-03-29T16:14:41.917Z,30112
2019-03-29T16:15:56.115Z,32608
2019-03-29T16:17:10.414Z,28352
2019-03-29T16:18:24.302Z,26560
2019-03-29T16:19:38.334Z,24544
2019-03-29T16:20:52.922Z,22464
2019-03-29T16:22:06.593Z,22560
2019-03-29T16:23:20.674Z,21760
2019-03-29T16:24:34.775Z,20608
2019-03-29T16:25:48.904Z,18432
2019-03-29T16:27:03.015Z,15040
2019-03-29T16:28:17.213Z,15904
2019-03-29T16:29:31.329Z,15768
2019-03-29T16:30:45.359Z,11780
2019-03-29T16:31:59.456Z,10808
2019-03-29T16:33:13.604Z,12668
2019-03-29T16:34:27.713Z,14868
2019-03-29T16:35:41.962Z,12360
2019-03-29T16:36:56.026Z,11620
2019-03-29T16:38:10.163Z,13092
2019-03-29T16:39:24.184Z,12280
2019-03-29T16:40:38.424Z,12904
2019-03-29T16:41:52.543Z,12388
2019-03-29T16:43:06.612Z,13200
2019-03-29T16:44:20.688Z,11420